createdAt,value
2019-03-12T00:00:54.019Z,4.70
2019-03-12T00:03:21.390Z,4.60
2019-03-12T00:05:48.766Z,4.60
2019-03-12T00:08:16.207Z,4.70
2019-03-12T00:10:44.478Z,4.70
2019-03-12T00:13:11.858Z,4.60
2019-03-12T00:15:39.383Z,4.70
2019-03-12T00:18:06.774Z,4.60
2019-03-12T00:20:34.167Z,4.40
2019-03-12T00:23:01.582Z,4.20
2019-03-12T00:25:28.974Z,4.10
2019-03-12T00:27:56.359Z,4.00
2019-03-12T00:30:23.832Z,3.90
2019-03-12T00:32:51.215Z,3.80
2019-03-12T00:35:18.595Z,3.80
2019-03-12T00:37:46.150Z,3.80
2019-03-12T00:40:13.541Z,3.90
2019-03-12T00:42:40.918Z,3.80
2019-03-12T00:45:08.556Z,3.70
2019-03-12T00:47:35.926Z,3.70
2019-03-12T00:50:03.886Z,3.60
2019-03-12T00:52:31.335Z,3.60
2019-03-12T00:54:58.723Z,3.50
2019-03-12T00:57:26.107Z,3.50
2019-03-12T00:59:56.275Z,3.30
2019-03-12T01:02:22.719Z,3.30
2019-03-12T01:04:50.101Z,3.30
2019-03-12T01:07:17.521Z,3.40
2019-03-12T01:09:45.188Z,3.30
2019-03-12T01:12:12.602Z,3.50
2019-03-12T01:14:40.109Z,3.50
2019-03-12T01:17:07.500Z,3.30
2019-03-12T01:19:34.872Z,3.40
2019-03-12T01:22:02.394Z,3.40
2019-03-12T01:24:29.779Z,3.50
2019-03-12T01:26:57.159Z,3.60
2019-03-12T01:29:24.647Z,3.60
2019-03-12T01:31:52.035Z,3.60
2019-03-12T01:34:19.406Z,3.50
2019-03-12T01:36:46.933Z,3.40
2019-03-12T01:39:14.715Z,3.30
2019-03-12T01:41:42.081Z,3.10
2019-03-12T01:44:09.878Z,3.10
2019-03-12T01:46:37.273Z,3.10
2019-03-12T01:49:04.646Z,3.20
2019-03-12T01:51:32.075Z,3.20
2019-03-12T01:53:59.446Z,3.20
2019-03-12T01:56:26.835Z,3.10
2019-03-12T01:58:54.393Z,3.10
2019-03-12T02:01:21.774Z,3.10
2019-03-12T02:03:49.150Z,3.20
2019-03-12T02:06:16.575Z,3.40
2019-03-12T02:08:44.099Z,3.60
2019-03-12T02:11:12.001Z,3.60
2019-03-12T02:13:39.734Z,3.50
2019-03-12T02:16:07.122Z,3.60
2019-03-12T02:18:34.499Z,3.60
2019-03-12T02:21:01.952Z,3.70
2019-03-12T02:23:29.326Z,3.70
2019-03-12T02:25:56.715Z,3.70
2019-03-12T02:28:24.139Z,3.70
2019-03-12T02:30:51.519Z,3.60
2019-03-12T02:33:18.899Z,3.50
2019-03-12T02:35:46.689Z,3.50
2019-03-12T02:38:14.079Z,3.40
2019-03-12T02:40:41.447Z,3.40
2019-03-12T02:43:08.887Z,3.30
2019-03-12T02:45:36.284Z,3.20
2019-03-12T02:48:03.765Z,3.30
2019-03-12T02:50:31.251Z,3.30
2019-03-12T02:52:58.620Z,3.30
2019-03-12T02:55:25.997Z,3.20
2019-03-12T02:57:53.430Z,3.30
2019-03-12T03:00:21.007Z,3.50
2019-03-12T03:02:48.374Z,3.60
2019-03-12T03:05:15.792Z,3.60
2019-03-12T03:07:53.973Z,3.70
2019-03-12T03:10:21.479Z,3.70
2019-03-12T03:12:49.305Z,3.70
2019-03-12T03:15:18.790Z,3.70
2019-03-12T03:17:46.645Z,3.60
2019-03-12T03:20:14.022Z,3.60
2019-03-12T03:22:41.407Z,3.50
2019-03-12T03:25:09.356Z,3.50
2019-03-12T03:27:36.764Z,3.50
2019-03-12T03:30:05.923Z,3.40
2019-03-12T03:32:34.018Z,3.30
2019-03-12T03:35:01.369Z,3.40
2019-03-12T03:37:28.745Z,3.30
2019-03-12T03:39:56.192Z,3.30
2019-03-12T03:42:23.687Z,3.30
2019-03-12T03:44:51.068Z,3.40
2019-03-12T03:47:20.003Z,3.40
2019-03-12T03:49:47.506Z,3.40
2019-03-12T03:52:14.869Z,3.40
2019-03-12T03:54:42.320Z,3.40
2019-03-12T03:57:09.698Z,3.40
2019-03-12T03:59:37.590Z,3.40
2019-03-12T04:02:04.991Z,3.40
2019-03-12T04:04:32.359Z,3.40
2019-03-12T04:06:59.751Z,3.40
2019-03-12T04:09:27.147Z,3.40
2019-03-12T04:11:54.894Z,3.40
2019-03-12T04:14:23.535Z,3.50
2019-03-12T04:16:51.088Z,3.60
2019-03-12T04:19:18.419Z,3.60
2019-03-12T04:21:45.843Z,3.60
2019-03-12T04:24:13.258Z,3.70
2019-03-12T04:26:40.636Z,3.70
2019-03-12T04:29:08.015Z,3.60
2019-03-12T04:31:35.544Z,3.70
2019-03-12T04:34:16.845Z,3.70
2019-03-12T04:36:44.767Z,3.70
2019-03-12T04:39:12.059Z,3.80
2019-03-12T04:41:39.443Z,3.70
2019-03-12T04:44:06.926Z,3.70
2019-03-12T04:46:34.318Z,3.80
2019-03-12T04:49:01.701Z,3.70
2019-03-12T04:51:29.358Z,3.70
2019-03-12T04:53:56.734Z,3.70
2019-03-12T04:56:24.023Z,3.70
2019-03-12T04:58:51.486Z,3.70
2019-03-12T05:01:18.879Z,3.80
2019-03-12T05:03:46.302Z,3.80
2019-03-12T05:06:13.686Z,3.70
2019-03-12T05:08:41.398Z,3.70
2019-03-12T05:11:09.281Z,3.70
2019-03-12T05:13:36.858Z,3.80
2019-03-12T05:16:04.250Z,3.70
2019-03-12T05:18:31.611Z,3.80
2019-03-12T05:20:59.030Z,3.80
2019-03-12T05:23:26.422Z,3.80
2019-03-12T05:25:53.805Z,3.90
2019-03-12T05:28:21.310Z,3.80
2019-03-12T05:30:48.692Z,3.70
2019-03-12T05:33:16.078Z,3.80
2019-03-12T05:35:43.612Z,3.80
2019-03-12T05:38:11.015Z,3.80
2019-03-12T05:40:38.471Z,3.70
2019-03-12T05:43:05.913Z,3.70
2019-03-12T05:45:33.326Z,3.80
2019-03-12T05:48:00.726Z,3.80
2019-03-12T05:50:28.178Z,3.80
2019-03-12T05:53:10.982Z,3.80
2019-03-12T05:55:38.636Z,3.90
2019-03-12T05:58:06.022Z,3.90
2019-03-12T06:00:33.406Z,3.90
2019-03-12T06:03:01.011Z,3.90
2019-03-12T06:05:28.425Z,4.00
2019-03-12T06:07:55.804Z,4.00
2019-03-12T06:10:23.291Z,4.10
2019-03-12T06:12:51.038Z,4.10
2019-03-12T06:15:18.430Z,4.20
2019-03-12T06:17:45.910Z,4.10
2019-03-12T06:20:13.415Z,4.20
2019-03-12T06:22:40.816Z,4.20
2019-03-12T06:25:08.489Z,4.20
2019-03-12T06:27:55.936Z,4.20
2019-03-12T06:30:25.672Z,4.30
2019-03-12T06:32:56.554Z,4.20
2019-03-12T06:35:29.950Z,4.20
2019-03-12T06:38:16.555Z,4.30
2019-03-12T06:41:06.398Z,4.30
2019-03-12T06:43:40.950Z,4.30
2019-03-12T06:46:25.440Z,4.30
2019-03-12T06:48:57.464Z,4.20
2019-03-12T06:51:31.062Z,4.10
2019-03-12T06:54:20.734Z,4.20
2019-03-12T06:57:06.326Z,4.20
2019-03-12T06:59:49.430Z,4.20
2019-03-12T07:02:25.637Z,4.10
2019-03-12T07:05:24.705Z,4.20
2019-03-12T07:08:06.519Z,4.20
2019-03-12T07:10:53.523Z,4.20
2019-03-12T07:13:31.383Z,4.30
2019-03-12T07:16:09.485Z,4.30
2019-03-12T07:18:52.366Z,4.30
2019-03-12T07:21:42.303Z,4.40
2019-03-12T07:24:33.633Z,4.30
2019-03-12T07:27:11.267Z,4.40
2019-03-12T07:29:57.859Z,4.40
2019-03-12T07:32:39.755Z,4.40
2019-03-12T07:35:26.721Z,4.30
2019-03-12T07:38:13.624Z,4.30
2019-03-12T07:41:00.571Z,4.40
2019-03-12T07:43:33.470Z,4.40
2019-03-12T07:46:16.366Z,4.50
2019-03-12T07:48:54.279Z,4.60
2019-03-12T07:51:39.758Z,4.60
2019-03-12T07:54:23.739Z,4.70
2019-03-12T07:57:16.733Z,4.70
2019-03-12T07:59:57.344Z,4.70
2019-03-12T08:02:39.526Z,4.70
2019-03-12T08:05:32.586Z,4.80
2019-03-12T08:08:19.546Z,5.00
2019-03-12T08:10:54.590Z,5.00
2019-03-12T08:13:44.586Z,5.10
2019-03-12T08:16:31.539Z,5.00
2019-03-12T08:19:18.466Z,5.20
2019-03-12T08:21:53.507Z,5.10
2019-03-12T08:24:43.423Z,5.10
2019-03-12T08:27:44.810Z,5.30
2019-03-12T08:30:26.345Z,5.30
2019-03-12T08:33:18.811Z,5.30
2019-03-12T08:36:04.339Z,5.40
2019-03-12T08:38:47.156Z,5.50
2019-03-12T08:41:32.754Z,5.50
2019-03-12T08:44:22.182Z,5.60
2019-03-12T08:47:10.595Z,5.50
2019-03-12T08:49:57.510Z,5.60
2019-03-12T08:52:35.796Z,5.70
2019-03-12T08:55:25.965Z,5.70
2019-03-12T08:58:13.328Z,5.80
2019-03-12T09:01:00.244Z,5.90
2019-03-12T09:03:59.494Z,6.00
2019-03-12T09:07:01.487Z,5.90
2019-03-12T09:09:52.657Z,6.00
2019-03-12T09:12:35.806Z,6.00
2019-03-12T09:15:35.824Z,5.90
2019-03-12T09:18:22.735Z,5.80
2019-03-12T09:21:08.111Z,6.00
2019-03-12T09:23:54.555Z,6.40
2019-03-12T09:26:29.275Z,6.70
2019-03-12T09:29:06.114Z,6.90
2019-03-12T09:31:53.014Z,7.10
2019-03-12T09:34:58.278Z,7.30
2019-03-12T09:37:34.350Z,7.50
2019-03-12T09:40:39.318Z,7.60
2019-03-12T09:43:32.017Z,7.80
2019-03-12T09:46:24.794Z,7.90
2019-03-12T09:49:02.335Z,8.00
2019-03-12T09:51:34.802Z,8.00
2019-03-12T09:54:33.380Z,8.00
2019-03-12T09:57:32.561Z,7.90
2019-03-12T10:00:22.347Z,8.10
2019-03-12T10:03:24.507Z,8.10
2019-03-12T10:05:59.022Z,8.10
2019-03-12T10:08:35.973Z,8.20
2019-03-12T10:11:14.134Z,8.30
2019-03-12T10:14:16.666Z,8.30
2019-03-12T10:17:03.579Z,8.30
2019-03-12T10:19:49.227Z,8.50
2019-03-12T10:22:38.649Z,8.70
2019-03-12T10:25:41.742Z,8.90
2019-03-12T10:28:28.650Z,9.10
2019-03-12T10:31:06.029Z,9.20
2019-03-12T10:34:02.590Z,9.30
2019-03-12T10:36:44.060Z,9.00
2019-03-12T10:40:03.230Z,8.90
2019-03-12T10:42:50.549Z,9.00
2019-03-12T10:45:40.263Z,9.00
2019-03-12T10:48:07.844Z,9.40
2019-03-12T10:50:35.289Z,9.60
2019-03-12T10:53:02.803Z,10.00
2019-03-12T10:55:30.289Z,9.90
2019-03-12T10:57:57.725Z,9.90
2019-03-12T11:00:26.946Z,10.20
2019-03-12T11:02:54.508Z,10.10
2019-03-12T11:05:22.073Z,10.10
2019-03-12T11:07:49.513Z,10.00
2019-03-12T11:10:17.087Z,9.90
2019-03-12T11:12:44.479Z,9.50
2019-03-12T11:15:12.294Z,9.50
2019-03-12T11:17:49.654Z,9.10
2019-03-12T11:20:10.772Z,8.90
2019-03-12T11:22:38.179Z,8.70
2019-03-12T11:25:06.307Z,8.40
2019-03-12T11:27:33.750Z,8.30
2019-03-12T11:30:02.800Z,8.10
2019-03-12T11:32:30.191Z,8.20
2019-03-12T11:34:57.574Z,8.40
2019-03-12T11:37:25.204Z,8.50
2019-03-12T11:39:52.629Z,8.50
2019-03-12T11:42:20.070Z,8.70
2019-03-12T11:44:47.688Z,8.50
2019-03-12T11:47:15.114Z,8.50
2019-03-12T11:49:42.543Z,8.70
2019-03-12T11:52:10.179Z,8.70
2019-03-12T11:54:37.529Z,8.90
2019-03-12T11:57:05.200Z,9.20
2019-03-12T11:59:32.996Z,9.20
2019-03-12T12:02:00.382Z,9.30
2019-03-12T12:04:27.758Z,9.10
2019-03-12T12:06:55.239Z,9.30
2019-03-12T12:09:22.823Z,9.40
2019-03-12T12:11:50.215Z,9.70
2019-03-12T12:14:17.662Z,9.50
2019-03-12T12:16:45.047Z,9.30
2019-03-12T12:19:12.435Z,9.40
2019-03-12T12:21:39.873Z,9.60
2019-03-12T12:24:07.254Z,9.70
2019-03-12T12:26:34.670Z,9.70
2019-03-12T12:29:02.315Z,9.80
2019-03-12T12:31:30.549Z,10.00
2019-03-12T12:33:57.923Z,10.10
2019-03-12T12:36:25.319Z,10.10
2019-03-12T12:38:52.883Z,10.20
2019-03-12T12:41:20.281Z,9.90
2019-03-12T12:43:47.694Z,9.80
2019-03-12T12:46:15.367Z,9.60
2019-03-12T12:48:42.771Z,9.40
2019-03-12T12:51:10.167Z,9.20
2019-03-12T12:53:37.638Z,9.30
2019-03-12T12:56:07.018Z,9.40
2019-03-12T12:58:34.290Z,9.30
2019-03-12T13:01:01.705Z,9.60
2019-03-12T13:03:29.111Z,9.70
2019-03-12T13:05:56.505Z,9.80
2019-03-12T13:08:24.014Z,9.80
2019-03-12T13:10:51.309Z,10.00
2019-03-12T13:13:18.691Z,9.90
2019-03-12T13:15:46.122Z,9.90
2019-03-12T13:18:16.436Z,10.10
2019-03-12T13:20:42.715Z,10.20
2019-03-12T13:23:10.150Z,10.30
2019-03-12T13:25:37.555Z,10.30
2019-03-12T13:28:04.958Z,10.30
2019-03-12T13:30:32.390Z,10.30
2019-03-12T13:33:00.255Z,10.40
2019-03-12T13:35:27.681Z,10.50
2019-03-12T13:37:55.158Z,10.50
2019-03-12T13:40:23.113Z,10.50
2019-03-12T13:43:10.163Z,10.70
2019-03-12T13:45:37.717Z,10.70
2019-03-12T13:48:05.113Z,10.70
2019-03-12T13:50:32.640Z,10.60
2019-03-12T13:53:00.053Z,10.60
2019-03-12T13:55:27.484Z,10.60
2019-03-12T13:57:54.982Z,10.70
2019-03-12T14:00:22.418Z,10.60
2019-03-12T14:02:50.106Z,10.70
2019-03-12T14:05:17.558Z,10.60
2019-03-12T14:07:44.994Z,10.50
2019-03-12T14:10:15.106Z,10.50
2019-03-12T14:12:42.806Z,10.50
2019-03-12T14:15:12.684Z,10.40
2019-03-12T14:17:40.078Z,10.30
2019-03-12T14:20:53.308Z,10.30
2019-03-12T14:23:29.219Z,10.20
2019-03-12T14:25:56.958Z,10.40
2019-03-12T14:28:24.461Z,10.20
2019-03-12T14:30:51.919Z,10.20
2019-03-12T14:33:19.458Z,10.20
2019-03-12T14:35:51.734Z,10.10
2019-03-12T14:38:16.958Z,10.00
2019-03-12T14:40:44.494Z,10.10
2019-03-12T14:43:11.930Z,10.10
2019-03-12T14:45:44.678Z,10.40
2019-03-12T14:48:48.951Z,11.20
2019-03-12T14:51:37.713Z,11.80
2019-03-12T14:54:05.567Z,12.30
2019-03-12T14:56:33.040Z,12.60
2019-03-12T14:59:00.446Z,12.80
2019-03-12T15:01:28.054Z,12.90
2019-03-12T15:03:55.459Z,13.20
2019-03-12T15:06:22.878Z,13.30
2019-03-12T15:08:50.647Z,13.50
2019-03-12T15:11:18.064Z,13.60
2019-03-12T15:13:45.447Z,13.70
2019-03-12T15:16:13.026Z,13.80
2019-03-12T15:18:40.436Z,13.90
2019-03-12T15:21:07.823Z,14.00
2019-03-12T15:23:35.366Z,14.10
2019-03-12T15:26:02.782Z,14.00
2019-03-12T15:28:30.191Z,13.80
2019-03-12T15:30:57.678Z,13.00
2019-03-12T15:33:25.069Z,12.30
2019-03-12T15:35:52.472Z,11.30
2019-03-12T15:38:20.089Z,10.70
2019-03-12T15:40:47.481Z,10.10
2019-03-12T15:43:14.891Z,9.60
2019-03-12T15:45:42.582Z,9.10
2019-03-12T15:48:10.261Z,8.80
2019-03-12T15:50:37.967Z,8.50
2019-03-12T15:53:05.677Z,8.30
2019-03-12T15:55:33.081Z,8.10
2019-03-12T15:58:00.465Z,8.00
2019-03-12T16:00:28.270Z,7.80
2019-03-12T16:02:55.671Z,7.60
2019-03-12T16:05:23.076Z,7.40
2019-03-12T16:07:50.521Z,7.40
2019-03-12T16:10:19.560Z,7.40
2019-03-12T16:12:47.151Z,7.20
2019-03-12T16:15:15.395Z,7.00
2019-03-12T16:17:42.792Z,6.90
2019-03-12T16:20:10.886Z,6.80
2019-03-12T16:22:38.310Z,6.70
2019-03-12T16:25:06.201Z,6.50
2019-03-12T16:27:33.598Z,6.40
2019-03-12T16:30:02.331Z,6.30
2019-03-12T16:32:29.722Z,6.20
2019-03-12T16:34:57.127Z,6.10
2019-03-12T16:37:26.226Z,6.00
2019-03-12T16:39:53.839Z,5.90
2019-03-12T16:42:21.239Z,5.80
2019-03-12T16:44:49.758Z,5.70
2019-03-12T16:47:17.242Z,5.60
2019-03-12T16:49:44.628Z,5.50
2019-03-12T16:52:12.664Z,5.50
2019-03-12T16:54:40.074Z,5.40
2019-03-12T16:57:07.483Z,5.40
2019-03-12T16:59:34.935Z,5.30
2019-03-12T17:02:02.335Z,5.30
2019-03-12T17:04:29.724Z,5.30
2019-03-12T17:06:57.196Z,5.20
2019-03-12T17:09:24.592Z,5.20
2019-03-12T17:11:52.007Z,5.10
2019-03-12T17:14:19.459Z,5.10
2019-03-12T17:16:47.002Z,5.00
2019-03-12T17:19:14.433Z,4.90
2019-03-12T17:21:43.279Z,4.90
2019-03-12T17:24:10.642Z,4.80
2019-03-12T17:26:38.092Z,4.70
2019-03-12T17:29:05.643Z,4.70
2019-03-12T17:31:33.100Z,4.60
2019-03-12T17:34:00.424Z,4.60
2019-03-12T17:36:28.654Z,4.60
2019-03-12T17:38:56.235Z,4.50
2019-03-12T17:41:23.771Z,4.40
2019-03-12T17:43:51.229Z,4.50
2019-03-12T17:46:18.798Z,4.40
2019-03-12T17:48:46.402Z,4.40
2019-03-12T17:51:13.839Z,4.30
2019-03-12T17:53:41.262Z,4.40
2019-03-12T17:56:08.853Z,4.30
2019-03-12T17:58:36.499Z,4.30
2019-03-12T18:01:03.912Z,4.30
2019-03-12T18:03:31.556Z,4.30
2019-03-12T18:05:59.316Z,4.40
2019-03-12T18:08:26.660Z,4.30
2019-03-12T18:10:54.057Z,4.30
2019-03-12T18:13:21.623Z,4.30
2019-03-12T18:15:49.007Z,4.30
2019-03-12T18:18:16.412Z,4.20
2019-03-12T18:20:44.300Z,4.20
2019-03-12T18:23:12.868Z,4.20
2019-03-12T18:25:40.287Z,4.20
2019-03-12T18:28:08.611Z,4.20
2019-03-12T18:30:36.404Z,4.20
2019-03-12T18:33:03.838Z,4.20
2019-03-12T18:35:31.299Z,4.30
2019-03-12T18:37:59.199Z,4.30
2019-03-12T18:40:26.770Z,4.30
2019-03-12T18:42:54.637Z,4.30
2019-03-12T18:45:22.518Z,4.40
2019-03-12T18:47:50.378Z,4.40
2019-03-12T18:50:18.708Z,4.50
2019-03-12T18:52:46.217Z,4.50
2019-03-12T18:55:38.089Z,4.40
2019-03-12T18:58:06.409Z,4.50
2019-03-12T19:00:33.799Z,4.50
2019-03-12T19:03:01.468Z,4.60
2019-03-12T19:05:28.866Z,4.60
2019-03-12T19:07:56.337Z,4.60
2019-03-12T19:10:23.931Z,4.60
2019-03-12T19:12:51.308Z,4.70
2019-03-12T19:15:18.703Z,4.70
2019-03-12T19:17:46.563Z,4.80
2019-03-12T19:20:14.167Z,4.80
2019-03-12T19:22:41.608Z,4.80
2019-03-12T19:25:09.742Z,4.90
2019-03-12T19:27:37.409Z,4.90
2019-03-12T19:30:05.425Z,5.00
2019-03-12T19:32:39.614Z,5.00
2019-03-12T19:35:10.172Z,5.00
2019-03-12T19:37:37.713Z,5.10
2019-03-12T19:40:07.881Z,5.00
2019-03-12T19:42:35.790Z,5.00
2019-03-12T19:45:04.358Z,5.00
2019-03-12T19:47:32.351Z,5.00
2019-03-12T19:49:59.805Z,5.00
2019-03-12T19:52:27.214Z,5.00
2019-03-12T19:54:55.034Z,5.00
2019-03-12T19:57:24.083Z,5.00
2019-03-12T19:59:51.470Z,5.00
2019-03-12T20:02:19.723Z,5.00
2019-03-12T20:04:47.713Z,5.00
2019-03-12T20:07:15.323Z,5.10
2019-03-12T20:10:20.795Z,5.10
2019-03-12T20:13:19.926Z,5.10
2019-03-12T20:16:36.593Z,5.20
2019-03-12T20:19:35.284Z,5.20
2019-03-12T20:22:39.893Z,5.20
2019-03-12T20:25:48.128Z,5.20
2019-03-12T20:28:43.840Z,5.20
2019-03-12T20:31:57.159Z,5.20
2019-03-12T20:35:05.600Z,5.30
2019-03-12T20:38:17.073Z,5.30
2019-03-12T20:41:36.240Z,5.30
2019-03-12T20:45:04.285Z,5.30
2019-03-12T20:48:05.133Z,5.30
2019-03-12T20:51:12.996Z,5.20
2019-03-12T20:54:32.809Z,5.20
2019-03-12T20:57:37.334Z,5.20
2019-03-12T21:00:54.752Z,5.20
2019-03-12T21:04:00.459Z,5.10
2019-03-12T21:07:24.701Z,5.20
2019-03-12T21:10:35.463Z,5.10
2019-03-12T21:13:41.401Z,5.10
2019-03-12T21:16:44.410Z,5.10
2019-03-12T21:19:45.972Z,5.00
2019-03-12T21:23:19.689Z,5.00
2019-03-12T21:26:13.231Z,5.00
2019-03-12T21:29:26.652Z,5.00
2019-03-12T21:31:54.244Z,5.10
2019-03-12T21:34:21.631Z,5.10
2019-03-12T21:36:49.003Z,5.10
2019-03-12T21:39:16.495Z,5.10
2019-03-12T21:41:44.067Z,5.20
2019-03-12T21:44:11.603Z,5.30
2019-03-12T21:46:39.171Z,5.30
2019-03-12T21:49:07.054Z,5.30
2019-03-12T21:51:34.876Z,5.30
2019-03-12T21:54:02.485Z,5.30
2019-03-12T21:56:29.889Z,5.30
2019-03-12T21:58:57.296Z,5.30
2019-03-12T22:01:25.098Z,5.30
2019-03-12T22:03:52.514Z,5.40
2019-03-12T22:06:19.900Z,5.30
2019-03-12T22:08:47.408Z,5.20
2019-03-12T22:11:14.944Z,5.20
2019-03-12T22:13:42.375Z,5.10
2019-03-12T22:16:09.917Z,5.10
2019-03-12T22:18:37.277Z,5.10
2019-03-12T22:21:04.773Z,5.10
2019-03-12T22:23:36.654Z,5.20
2019-03-12T22:26:03.990Z,5.20
2019-03-12T22:28:31.394Z,5.30
2019-03-12T22:30:58.865Z,5.30
2019-03-12T22:33:26.328Z,5.30
2019-03-12T22:35:53.715Z,5.30
2019-03-12T22:38:21.154Z,5.30
2019-03-12T22:40:48.563Z,5.40
2019-03-12T22:43:15.959Z,5.30
2019-03-12T22:45:43.588Z,5.30
2019-03-12T22:48:11.158Z,5.30
2019-03-12T22:50:38.750Z,5.30
2019-03-12T22:53:06.214Z,5.40
2019-03-12T22:55:33.606Z,5.40
2019-03-12T22:58:01.010Z,5.50
2019-03-12T23:00:31.265Z,5.40
2019-03-12T23:02:58.762Z,5.40
2019-03-12T23:05:26.154Z,5.50
2019-03-12T23:07:53.486Z,5.50
2019-03-12T23:10:21.186Z,5.40
2019-03-12T23:12:48.777Z,5.50
2019-03-12T23:15:17.950Z,5.50
2019-03-12T23:17:45.347Z,5.50
2019-03-12T23:20:14.178Z,5.50
2019-03-12T23:22:41.763Z,5.50
2019-03-12T23:25:09.352Z,5.60
2019-03-12T23:27:36.744Z,5.60
2019-03-12T23:30:06.465Z,5.60
2019-03-12T23:32:33.872Z,5.60
2019-03-12T23:35:01.264Z,5.60
2019-03-12T23:37:28.893Z,5.60
2019-03-12T23:39:56.285Z,5.60
2019-03-12T23:42:23.781Z,5.70
2019-03-12T23:44:51.200Z,5.60
2019-03-12T23:47:18.751Z,5.70
2019-03-12T23:49:46.342Z,5.70
2019-03-12T23:52:14.082Z,5.70
2019-03-12T23:54:41.592Z,5.70
2019-03-12T23:57:09.001Z,5.70
2019-03-12T23:59:37.698Z,5.70
